Time;durP1;ratioP1;P1;durP2;ratioP2;P2;SDS_P1;SDS_P2;PMS_P1;PMS_P2;Temp;Humidity;BMP_temperature;BMP_pressure;BME280_temperature;BME280_humidity;BME280_pressure;Samples;Min_cycle;Max_cycle;Signal;HPM_P1;HPM_P2
2022/11/20 00:02:19;;;;;;;;;;;0.50;99.90;;;;;;4991635;28;19926;-71
2022/11/20 00:04:45;;;;;;;;;;;0.60;99.90;;;;;;5000120;28;19918;-71
2022/11/20 00:07:10;;;;;;;;;;;0.50;99.90;;;;;;4991479;28;20331;-71
2022/11/20 00:09:36;;;;;;;;;;;0.60;99.90;;;;;;4992486;28;19921;-71
2022/11/20 00:12:02;;;;;;;;;;;0.60;99.90;;;;;;4992724;28;20276;-71
2022/11/20 00:14:27;;;;;;;;;;;0.60;99.90;;;;;;4992800;28;19998;-71
2022/11/20 00:16:53;;;;;;;;;;;0.60;99.90;;;;;;4992172;28;20280;-71
2022/11/20 00:19:18;;;;;;;;;;;1.30;99.90;;;;;;4991747;28;19929;-71
2022/11/20 00:21:44;;;;;;;;;;;0.60;99.90;;;;;;4991937;28;19936;-71
2022/11/20 00:24:12;;;;;;;;;;;0.50;99.90;;;;;;4992612;28;20381;-71
2022/11/20 00:26:38;;;;;;;;;;;0.60;99.90;;;;;;4990300;28;19922;-71
2022/11/20 00:29:03;;;;;;;;;;;0.60;99.90;;;;;;4995670;28;20429;-71
2022/11/20 00:31:33;;;;;;;;;;;0.60;99.90;;;;;;4990933;28;20008;-72
2022/11/20 00:33:58;;;;;;;;;;;0.50;99.90;;;;;;4994301;28;19922;-71
2022/11/20 00:36:27;;;;;;;;;;;0.50;99.90;;;;;;4991043;28;20016;-71
2022/11/20 00:38:57;;;;;;;;;;;0.50;99.90;;;;;;4991110;28;19922;-71
2022/11/20 00:41:23;;;;;;;;;;;0.50;99.90;;;;;;4989978;28;20020;-71
2022/11/20 00:43:48;;;;;;;;;;;0.40;99.90;;;;;;4991688;28;20003;-71
2022/11/20 00:46:15;;;;;;;;;;;0.40;99.90;;;;;;4992282;28;19929;-71
2022/11/20 00:48:41;;;;;;;;;;;0.30;99.90;;;;;;4990617;28;20300;-70
2022/11/20 00:51:07;;;;;;;;;;;0.30;99.90;;;;;;4991734;28;19994;-70
2022/11/20 00:53:32;;;;;;;;;;;0.30;99.90;;;;;;4991852;28;20353;-70
2022/11/20 00:55:59;;;;;;;;;;;0.30;99.90;;;;;;4991162;28;20270;-70
2022/11/20 00:58:28;;;;;;;;;;;0.30;99.90;;;;;;4992199;28;19928;-71
2022/11/20 01:00:59;;;;;;;;;;;0.30;99.90;;;;;;4991650;28;19929;-71
2022/11/20 01:03:24;;;;;;;;;;;0.30;99.90;;;;;;4993194;28;20012;-69
2022/11/20 01:05:50;;;;;;;;;;;1.30;99.90;;;;;;4993009;28;20468;-72
2022/11/20 01:08:15;;;;;;;;;;;0.30;99.90;;;;;;4991261;28;19922;-72
2022/11/20 01:10:41;;;;;;;;;;;0.30;99.90;;;;;;4990147;28;19929;-71
2022/11/20 01:15:50;;;;;;;;;;;0.20;99.90;;;;;;4987946;28;19977;-71
2022/11/20 01:18:16;;;;;;;;;;;0.20;99.90;;;;;;4990533;28;19976;-72
2022/11/20 01:20:41;;;;;;;;;;;0.50;99.90;;;;;;4991330;28;19982;-72
2022/11/20 01:23:07;;;;;;;;;;;0.10;99.90;;;;;;4990805;28;20335;-72
2022/11/20 01:25:33;;;;;;;;;;;0.10;99.90;;;;;;4991289;28;19922;-71
2022/11/20 01:27:59;;;;;;;;;;;0.10;99.90;;;;;;4991659;28;19921;-71
2022/11/20 01:30:24;;;;;;;;;;;0.10;99.90;;;;;;4990751;28;20289;-70
2022/11/20 01:32:50;;;;;;;;;;;0.20;99.90;;;;;;4991082;28;19922;-70
2022/11/20 01:35:16;;;;;;;;;;;0.20;99.90;;;;;;4991828;28;19922;-71
2022/11/20 01:37:42;;;;;;;;;;;0.20;99.90;;;;;;4990290;28;19918;-70
2022/11/20 01:40:08;;;;;;;;;;;0.10;99.90;;;;;;4991361;28;19922;-70
2022/11/20 01:45:36;;;;;;;;;;;0.10;99.90;;;;;;4988327;28;20281;-70
2022/11/20 01:48:02;;;;;;;;;;;0.10;99.90;;;;;;4991376;28;19928;-70
2022/11/20 01:50:28;;;;;;;;;;;1.90;99.90;;;;;;4990488;28;19922;-70
2022/11/20 01:53:00;;;;;;;;;;;0.10;99.90;;;;;;4991826;28;19921;-70
2022/11/20 01:55:29;;;;;;;;;;;0.10;99.90;;;;;;4990302;28;20039;-71
2022/11/20 01:57:55;;;;;;;;;;;0.10;99.90;;;;;;4990577;28;19922;-70
2022/11/20 02:00:20;;;;;;;;;;;0.10;99.90;;;;;;4989522;28;20005;-71
2022/11/20 02:02:57;;;;;;;;;;;0.20;99.90;;;;;;4990104;28;20096;-71
2022/11/20 02:05:27;;;;;;;;;;;0.10;99.90;;;;;;4990308;28;20017;-70
2022/11/20 02:07:54;;;;;;;;;;;0.20;99.90;;;;;;4991127;28;19926;-70
2022/11/20 02:10:23;;;;;;;;;;;0.20;99.90;;;;;;4994012;28;20411;-70
2022/11/20 02:15:33;;;;;;;;;;;0.30;99.90;;;;;;4987012;28;20403;-70
2022/11/20 02:17:58;;;;;;;;;;;0.30;99.90;;;;;;4990926;28;19944;-70
2022/11/20 02:20:24;;;;;;;;;;;0.30;99.90;;;;;;4989969;28;20369;-70
2022/11/20 02:23:10;;;;;;;;;;;0.30;99.90;;;;;;4993216;28;19921;-70
2022/11/20 02:25:36;;;;;;;;;;;0.30;99.90;;;;;;4986797;28;19983;-71
2022/11/20 02:28:02;;;;;;;;;;;0.30;99.90;;;;;;4990900;28;19922;-70
2022/11/20 02:30:28;;;;;;;;;;;0.30;99.90;;;;;;4988917;28;19922;-70
2022/11/20 02:32:53;;;;;;;;;;;0.30;99.90;;;;;;4989952;28;19922;-70
2022/11/20 02:35:19;;;;;;;;;;;0.30;99.90;;;;;;4991600;28;20323;-72
2022/11/20 02:37:48;;;;;;;;;;;1.80;99.90;;;;;;4991616;28;20403;-70
2022/11/20 02:40:13;;;;;;;;;;;0.40;99.90;;;;;;4990698;28;19926;-70
2022/11/20 02:42:39;;;;;;;;;;;0.40;99.90;;;;;;4990286;28;20464;-70
2022/11/20 02:45:05;;;;;;;;;;;0.40;99.90;;;;;;4990233;28;20005;-70
2022/11/20 02:47:31;;;;;;;;;;;0.40;99.90;;;;;;4990038;28;19976;-70
2022/11/20 02:49:56;;;;;;;;;;;0.40;99.90;;;;;;4988436;28;19961;-71
2022/11/20 02:52:22;;;;;;;;;;;0.40;99.90;;;;;;4988105;28;19928;-71
2022/11/20 02:54:47;;;;;;;;;;;1.00;99.90;;;;;;4989099;28;19925;-70
2022/11/20 02:57:13;;;;;;;;;;;0.40;99.90;;;;;;4988889;28;20004;-70
2022/11/20 02:59:38;;;;;;;;;;;0.40;99.90;;;;;;4989590;28;19922;-70
2022/11/20 03:02:04;;;;;;;;;;;0.40;99.90;;;;;;4989493;28;19929;-70
2022/11/20 03:04:30;;;;;;;;;;;0.50;99.90;;;;;;4989173;28;19921;-70
2022/11/20 03:06:56;;;;;;;;;;;0.50;99.90;;;;;;4990942;28;19922;-70
2022/11/20 03:09:21;;;;;;;;;;;0.50;99.90;;;;;;4989353;28;20383;-71
2022/11/20 03:11:47;;;;;;;;;;;0.50;99.90;;;;;;4989328;28;20478;-70
2022/11/20 03:14:13;;;;;;;;;;;0.50;99.90;;;;;;4991141;28;19928;-70
2022/11/20 03:16:38;;;;;;;;;;;0.50;99.90;;;;;;4990353;28;19925;-70
2022/11/20 03:19:04;;;;;;;;;;;0.80;99.90;;;;;;4990159;28;19922;-70
2022/11/20 03:21:29;;;;;;;;;;;0.50;99.90;;;;;;4988378;28;20297;-71
2022/11/20 03:23:55;;;;;;;;;;;0.40;99.90;;;;;;4992513;28;19918;-70
2022/11/20 03:26:21;;;;;;;;;;;0.40;99.90;;;;;;4989883;28;19922;-70
2022/11/20 03:28:57;;;;;;;;;;;0.40;99.90;;;;;;4987520;28;20798;-70
2022/11/20 03:31:33;;;;;;;;;;;0.40;99.90;;;;;;4986616;28;19953;-70
2022/11/20 03:34:03;;;;;;;;;;;0.30;99.90;;;;;;4990034;28;19922;-70
2022/11/20 03:36:29;;;;;;;;;;;0.20;99.90;;;;;;4988745;28;19922;-70
2022/11/20 03:38:55;;;;;;;;;;;0.20;99.90;;;;;;4990179;28;20020;-70
2022/11/20 03:41:22;;;;;;;;;;;0.20;99.90;;;;;;4990095;28;20001;-70
2022/11/20 03:43:49;;;;;;;;;;;0.10;99.90;;;;;;4987332;28;19933;-70
2022/11/20 03:46:14;;;;;;;;;;;0.10;99.90;;;;;;4989472;28;19921;-71
2022/11/20 03:48:39;;;;;;;;;;;0.00;99.90;;;;;;4989221;28;19982;-70
2022/11/20 03:51:08;;;;;;;;;;;0.00;99.90;;;;;;4988633;28;19921;-70
2022/11/20 03:53:33;;;;;;;;;;;0.10;99.90;;;;;;4989141;28;19947;-71
2022/11/20 03:55:59;;;;;;;;;;;0.10;99.90;;;;;;4989383;28;19925;-70
2022/11/20 03:58:24;;;;;;;;;;;0.10;99.90;;;;;;4988470;28;19922;-70
2022/11/20 04:00:50;;;;;;;;;;;0.00;99.90;;;;;;4988868;28;19973;-69
2022/11/20 04:03:16;;;;;;;;;;;-0.20;99.90;;;;;;4990754;28;19966;-70
2022/11/20 04:05:41;;;;;;;;;;;-0.20;99.90;;;;;;4988401;28;19929;-70
2022/11/20 04:08:07;;;;;;;;;;;-0.30;99.90;;;;;;4989540;28;19936;-70
2022/11/20 04:10:32;;;;;;;;;;;-0.30;99.90;;;;;;4989893;28;19922;-70
2022/11/20 04:12:58;;;;;;;;;;;-0.30;99.90;;;;;;4988449;28;19921;-70
2022/11/20 04:15:23;;;;;;;;;;;-0.30;99.90;;;;;;4989337;28;20361;-70
2022/11/20 04:17:49;;;;;;;;;;;-0.50;99.90;;;;;;4989025;28;20372;-70
2022/11/20 04:20:14;;;;;;;;;;;-0.50;99.90;;;;;;4990144;28;19921;-70
2022/11/20 04:22:42;;;;;;;;;;;-0.50;99.90;;;;;;4985212;28;19929;-70
2022/11/20 04:25:08;;;;;;;;;;;-0.70;99.90;;;;;;4988929;28;19930;-70
2022/11/20 04:27:36;;;;;;;;;;;-0.60;99.90;;;;;;4991285;28;20319;-70
2022/11/20 04:30:02;;;;;;;;;;;-0.60;99.90;;;;;;4992490;28;19922;-70
2022/11/20 04:32:28;;;;;;;;;;;-0.60;99.90;;;;;;4991250;28;19921;-70
2022/11/20 04:34:53;;;;;;;;;;;-0.70;99.90;;;;;;4994737;28;19925;-70
2022/11/20 04:37:19;;;;;;;;;;;-0.60;99.90;;;;;;4994640;28;19968;-70
2022/11/20 04:39:44;;;;;;;;;;;-0.70;99.90;;;;;;4991198;28;20369;-71
2022/11/20 04:42:28;;;;;;;;;;;-0.70;99.90;;;;;;4992164;28;19933;-71
2022/11/20 04:44:54;;;;;;;;;;;-0.70;99.90;;;;;;4990770;28;19961;-71
2022/11/20 04:47:19;;;;;;;;;;;-0.70;99.90;;;;;;4991295;28;19961;-71
2022/11/20 04:49:45;;;;;;;;;;;-0.70;99.90;;;;;;4990818;28;20365;-71
2022/11/20 04:52:10;;;;;;;;;;;-0.80;99.90;;;;;;4990725;28;19922;-71
2022/11/20 04:54:36;;;;;;;;;;;-0.80;99.90;;;;;;4990010;28;19922;-70
2022/11/20 04:57:01;;;;;;;;;;;-0.80;99.90;;;;;;4991949;28;20331;-70
2022/11/20 04:59:27;;;;;;;;;;;-0.90;99.90;;;;;;4990933;28;19922;-71
2022/11/20 05:01:52;;;;;;;;;;;-0.30;99.90;;;;;;4991183;28;19979;-71
2022/11/20 05:04:18;;;;;;;;;;;-0.90;99.90;;;;;;4991967;28;20006;-71
2022/11/20 05:06:45;;;;;;;;;;;-1.00;99.90;;;;;;4991637;28;19926;-71
2022/11/20 05:09:11;;;;;;;;;;;-1.00;99.90;;;;;;4991941;28;20008;-70
2022/11/20 05:11:39;;;;;;;;;;;-1.10;99.90;;;;;;4991544;28;19922;-71
2022/11/20 05:14:05;;;;;;;;;;;-1.10;99.90;;;;;;4990183;28;19921;-71
2022/11/20 05:16:30;;;;;;;;;;;-1.40;99.90;;;;;;4991234;28;19991;-71
2022/11/20 05:18:56;;;;;;;;;;;-1.20;99.90;;;;;;4995072;28;20399;-71
2022/11/20 05:21:22;;;;;;;;;;;-0.60;99.90;;;;;;4989822;28;19961;-72
2022/11/20 05:23:50;;;;;;;;;;;-1.10;99.90;;;;;;4991367;28;19922;-71
2022/11/20 05:26:21;;;;;;;;;;;-1.20;99.90;;;;;;4991809;28;19921;-70
2022/11/20 05:28:46;;;;;;;;;;;-1.20;99.90;;;;;;4994782;28;19929;-70
2022/11/20 05:31:13;;;;;;;;;;;-1.20;99.90;;;;;;4994229;28;19922;-71
2022/11/20 05:33:40;;;;;;;;;;;-1.20;99.90;;;;;;4991152;28;20353;-71
2022/11/20 05:36:05;;;;;;;;;;;-1.20;99.90;;;;;;4990454;28;19922;-70
2022/11/20 05:38:31;;;;;;;;;;;-1.30;99.90;;;;;;4991321;28;19945;-71
2022/11/20 05:41:07;;;;;;;;;;;-1.20;99.90;;;;;;4989541;28;20364;-71
2022/11/20 05:43:34;;;;;;;;;;;-1.20;99.90;;;;;;4985809;28;19929;-70
2022/11/20 05:46:00;;;;;;;;;;;-1.20;99.90;;;;;;4991271;28;19926;-70
2022/11/20 05:48:26;;;;;;;;;;;-1.30;99.90;;;;;;4986220;28;20282;-70
2022/11/20 05:50:51;;;;;;;;;;;-1.20;99.90;;;;;;4988790;28;19922;-71
2022/11/20 05:53:17;;;;;;;;;;;-1.20;99.90;;;;;;4991382;28;19926;-71
2022/11/20 05:55:42;;;;;;;;;;;-1.30;99.90;;;;;;4990943;28;20334;-71
2022/11/20 05:58:10;;;;;;;;;;;-1.20;99.90;;;;;;4990748;28;19976;-71
2022/11/20 06:00:36;;;;;;;;;;;-1.30;99.90;;;;;;4990601;28;19922;-71
2022/11/20 06:03:05;;;;;;;;;;;-1.30;99.90;;;;;;4991107;28;19922;-71
2022/11/20 06:05:30;;;;;;;;;;;-1.20;99.90;;;;;;4992718;28;20284;-71
2022/11/20 06:07:56;;;;;;;;;;;-1.20;99.90;;;;;;4991143;28;19922;-71
2022/11/20 06:10:21;;;;;;;;;;;-1.20;99.90;;;;;;4989452;28;19922;-71
2022/11/20 06:12:47;;;;;;;;;;;-1.20;99.90;;;;;;4990512;28;20260;-71
2022/11/20 06:15:12;;;;;;;;;;;-1.20;99.90;;;;;;4989431;28;19979;-71
2022/11/20 06:17:38;;;;;;;;;;;-1.20;99.90;;;;;;4992053;28;19984;-71
2022/11/20 06:20:03;;;;;;;;;;;-1.10;99.90;;;;;;4989626;28;20016;-71
2022/11/20 06:22:29;;;;;;;;;;;-1.20;99.90;;;;;;4989195;28;19921;-71
2022/11/20 06:24:54;;;;;;;;;;;-1.20;99.90;;;;;;4989675;28;19943;-70
2022/11/20 06:27:20;;;;;;;;;;;-1.20;99.90;;;;;;4992794;28;20482;-71
2022/11/20 06:29:54;;;;;;;;;;;-1.20;99.90;;;;;;4989947;28;19922;-72
2022/11/20 06:32:20;;;;;;;;;;;-1.20;99.90;;;;;;4986244;28;19932;-72
2022/11/20 06:34:48;;;;;;;;;;;-1.20;99.90;;;;;;4989836;28;20016;-72
2022/11/20 06:37:14;;;;;;;;;;;-0.90;99.90;;;;;;5011022;28;20304;-71
2022/11/20 06:39:40;;;;;;;;;;;-1.10;99.90;;;;;;4991515;28;19986;-68
2022/11/20 06:42:08;;;;;;;;;;;-1.10;99.90;;;;;;4991503;28;20365;-69
2022/11/20 06:44:33;;;;;;;;;;;-1.10;99.90;;;;;;4991406;28;19929;-69
2022/11/20 06:46:59;;;;;;;;;;;-1.10;99.90;;;;;;4988922;28;19955;-69
2022/11/20 06:49:28;;;;;;;;;;;-1.10;99.90;;;;;;4990450;28;19928;-69
2022/11/20 06:51:56;;;;;;;;;;;-1.10;99.90;;;;;;4989952;28;20389;-70
2022/11/20 06:54:22;;;;;;;;;;;-1.00;99.90;;;;;;4989611;28;19929;-69
2022/11/20 06:56:48;;;;;;;;;;;-1.00;99.90;;;;;;4990041;28;20464;-69
2022/11/20 06:59:13;;;;;;;;;;;-1.10;99.90;;;;;;4991895;28;19929;-70
2022/11/20 07:01:39;;;;;;;;;;;-1.00;99.90;;;;;;4988841;28;20012;-69
2022/11/20 07:04:04;;;;;;;;;;;-1.00;99.90;;;;;;4989055;28;19945;-69
2022/11/20 07:06:30;;;;;;;;;;;-0.30;99.90;;;;;;4989804;28;19926;-70
2022/11/20 07:08:55;;;;;;;;;;;-0.90;99.90;;;;;;4989284;28;19921;-69
2022/11/20 07:11:21;;;;;;;;;;;-0.80;99.90;;;;;;4988588;28;20405;-69
2022/11/20 07:13:47;;;;;;;;;;;-0.10;99.90;;;;;;4988594;28;19922;-69
2022/11/20 07:16:12;;;;;;;;;;;-0.80;99.90;;;;;;4992229;28;19922;-69
2022/11/20 07:18:38;;;;;;;;;;;-0.70;99.90;;;;;;4989524;28;19929;-71
2022/11/20 07:21:05;;;;;;;;;;;-0.80;99.90;;;;;;4992667;28;19957;-71
2022/11/20 07:23:30;;;;;;;;;;;-0.70;99.90;;;;;;4989520;28;20016;-72
2022/11/20 07:25:59;;;;;;;;;;;1.00;99.90;;;;;;4990907;28;20367;-70
2022/11/20 07:28:24;;;;;;;;;;;-0.70;99.90;;;;;;4992616;28;19921;-70
2022/11/20 07:30:51;;;;;;;;;;;-0.60;99.90;;;;;;4992307;28;20448;-70
2022/11/20 07:33:16;;;;;;;;;;;-0.60;99.90;;;;;;4989889;28;20371;-70
2022/11/20 07:35:42;;;;;;;;;;;-0.60;99.90;;;;;;4988401;28;19925;-71
2022/11/20 07:38:08;;;;;;;;;;;-0.50;99.90;;;;;;4985903;28;19968;-71
2022/11/20 07:40:33;;;;;;;;;;;0.40;99.90;;;;;;4989132;28;19921;-71
2022/11/20 07:42:59;;;;;;;;;;;-0.60;99.90;;;;;;4987449;28;19929;-71
2022/11/20 07:45:24;;;;;;;;;;;-0.60;99.90;;;;;;4988373;28;19918;-74
2022/11/20 07:47:50;;;;;;;;;;;-0.60;99.90;;;;;;4987685;28;20305;-70
2022/11/20 07:50:16;;;;;;;;;;;-0.50;99.90;;;;;;4988695;28;19969;-70
2022/11/20 07:52:42;;;;;;;;;;;-0.50;99.90;;;;;;4988017;28;19990;-71
2022/11/20 07:55:08;;;;;;;;;;;0.10;99.90;;;;;;4991030;28;20384;-69
2022/11/20 07:57:34;;;;;;;;;;;-0.50;99.90;;;;;;4988457;28;19922;-74
2022/11/20 07:59:59;;;;;;;;;;;-0.50;99.90;;;;;;4991423;28;19949;-72
2022/11/20 08:02:25;;;;;;;;;;;-0.50;99.90;;;;;;4992972;28;19922;-70
2022/11/20 08:04:50;;;;;;;;;;;-0.50;99.90;;;;;;4992430;28;19929;-72
2022/11/20 08:07:16;;;;;;;;;;;-0.60;99.90;;;;;;4992852;28;19921;-71
2022/11/20 08:09:41;;;;;;;;;;;-0.60;99.90;;;;;;4991278;28;19928;-70
2022/11/20 08:14:52;;;;;;;;;;;-0.50;99.90;;;;;;4994608;28;20008;-74
2022/11/20 08:17:17;;;;;;;;;;;0.20;99.90;;;;;;4993665;28;20802;-76
2022/11/20 08:19:43;;;;;;;;;;;0.80;99.90;;;;;;4991482;28;19922;-78
2022/11/20 08:22:08;;;;;;;;;;;1.00;99.90;;;;;;4993138;28;19922;-77
2022/11/20 08:24:34;;;;;;;;;;;1.10;99.90;;;;;;4993144;28;20399;-78
2022/11/20 08:27:00;;;;;;;;;;;2.30;99.90;;;;;;4992829;28;19925;-82
2022/11/20 08:29:26;;;;;;;;;;;1.30;99.90;;;;;;5003784;28;19928;-86
2022/11/20 08:31:51;;;;;;;;;;;1.30;99.90;;;;;;4990323;28;20452;-83
2022/11/20 08:34:17;;;;;;;;;;;1.80;99.90;;;;;;4991835;28;19929;-73
2022/11/20 08:36:42;;;;;;;;;;;2.60;99.90;;;;;;4992215;28;19972;-75
2022/11/20 08:39:11;;;;;;;;;;;2.80;99.90;;;;;;4994618;28;20373;-72
2022/11/20 08:41:39;;;;;;;;;;;2.80;99.90;;;;;;4992872;28;20373;-72
2022/11/20 08:44:11;;;;;;;;;;;2.50;99.90;;;;;;4992599;28;20403;-74
2022/11/20 08:46:40;;;;;;;;;;;4.40;99.90;;;;;;4990678;28;19922;-83
2022/11/20 08:49:07;;;;;;;;;;;2.40;99.90;;;;;;4984696;28;20377;-77
2022/11/20 08:51:33;;;;;;;;;;;2.30;99.90;;;;;;4991139;28;20325;-78
2022/11/20 08:53:58;;;;;;;;;;;2.60;99.90;;;;;;4990604;28;20008;-77
2022/11/20 08:56:24;;;;;;;;;;;3.60;99.90;;;;;;4991396;28;19928;-73
2022/11/20 08:58:51;;;;;;;;;;;5.30;99.90;;;;;;4990768;28;19929;-80
2022/11/20 09:01:17;;;;;;;;;;;5.30;99.90;;;;;;4988930;28;19961;-76
2022/11/20 09:03:42;;;;;;;;;;;5.20;99.90;;;;;;4989453;28;20003;-76
2022/11/20 09:06:08;;;;;;;;;;;4.90;99.90;;;;;;4989438;28;20481;-75
2022/11/20 09:08:41;;;;;;;;;;;5.20;99.90;;;;;;4987711;28;20293;-75
2022/11/20 09:11:07;;;;;;;;;;;7.30;99.90;;;;;;4986974;28;20444;-76
2022/11/20 09:13:33;;;;;;;;;;;7.30;99.90;;;;;;4988572;28;20032;-79
2022/11/20 09:16:00;;;;;;;;;;;7.40;99.90;;;;;;4990158;28;19922;-84
2022/11/20 09:18:26;;;;;;;;;;;7.00;99.90;;;;;;4991898;28;20353;-79
2022/11/20 09:20:55;;;;;;;;;;;6.70;99.90;;;;;;4989930;28;19921;-71
2022/11/20 09:23:21;;;;;;;;;;;6.40;99.90;;;;;;4987137;28;19929;-72
2022/11/20 09:25:47;;;;;;;;;;;5.90;99.90;;;;;;4991346;28;20377;-72
2022/11/20 09:28:13;;;;;;;;;;;7.10;99.90;;;;;;4989413;28;19921;-72
2022/11/20 09:30:38;;;;;;;;;;;5.40;99.90;;;;;;4988906;28;19922;-72
2022/11/20 09:33:04;;;;;;;;;;;5.20;99.90;;;;;;4991246;28;19921;-72
2022/11/20 09:35:30;;;;;;;;;;;4.90;99.90;;;;;;4990292;28;19949;-72
2022/11/20 09:37:56;;;;;;;;;;;4.60;99.90;;;;;;4990795;28;20556;-72
2022/11/20 09:40:30;;;;;;;;;;;4.60;99.90;;;;;;4994984;28;19924;-72
2022/11/20 09:43:01;;;;;;;;;;;4.40;99.90;;;;;;4990878;28;19921;-73
2022/11/20 09:45:37;;;;;;;;;;;4.40;99.90;;;;;;4989991;28;19928;-72
2022/11/20 09:48:06;;;;;;;;;;;5.80;99.90;;;;;;4989202;28;19922;-72
2022/11/20 09:50:38;;;;;;;;;;;4.40;99.90;;;;;;4987928;28;19926;-72
2022/11/20 09:53:26;;;;;;;;;;;4.40;99.90;;;;;;4989145;28;19921;-72
2022/11/20 09:55:52;;;;;;;;;;;4.40;99.90;;;;;;5010798;28;19922;-72
2022/11/20 09:58:23;;;;;;;;;;;4.30;99.90;;;;;;4989033;28;19929;-72
2022/11/20 10:00:50;;;;;;;;;;;4.50;99.90;;;;;;4985426;28;20391;-72
2022/11/20 10:03:39;;;;;;;;;;;4.50;99.90;;;;;;4988911;28;19933;-72
2022/11/20 10:06:05;;;;;;;;;;;4.70;99.90;;;;;;4993239;28;19974;-72
2022/11/20 10:08:41;;;;;;;;;;;4.90;99.90;;;;;;4990221;28;20012;-72
2022/11/20 10:11:15;;;;;;;;;;;5.10;99.90;;;;;;4990346;28;20066;-72
2022/11/20 10:13:43;;;;;;;;;;;5.30;99.90;;;;;;4991051;28;19929;-72
2022/11/20 10:16:15;;;;;;;;;;;5.40;99.90;;;;;;4990138;28;19921;-72
2022/11/20 10:19:00;;;;;;;;;;;3.70;99.90;;;;;;4986195;28;19926;-72
2022/11/20 10:21:40;;;;;;;;;;;5.40;99.90;;;;;;4993115;28;19926;-71
2022/11/20 10:24:06;;;;;;;;;;;5.20;99.90;;;;;;4999134;28;19928;-72
2022/11/20 10:26:38;;;;;;;;;;;5.00;99.90;;;;;;4999463;28;19922;-72
2022/11/20 10:29:15;;;;;;;;;;;4.90;99.90;;;;;;4995981;28;19929;-72
2022/11/20 10:31:42;;;;;;;;;;;5.10;99.90;;;;;;4986392;28;19925;-72
2022/11/20 10:34:22;;;;;;;;;;;5.00;99.90;;;;;;4990151;28;20117;-70
2022/11/20 10:36:57;;;;;;;;;;;5.20;99.90;;;;;;4986354;28;19926;-75
2022/11/20 10:39:26;;;;;;;;;;;6.20;99.90;;;;;;4988717;28;20250;-78
2022/11/20 10:41:53;;;;;;;;;;;7.10;99.90;;;;;;4988866;28;19921;-74
2022/11/20 10:47:20;;;;;;;;;;;6.90;99.90;;;;;;4986629;28;20439;-72
2022/11/20 10:49:48;;;;;;;;;;;6.60;99.90;;;;;;4989433;28;20278;-71
2022/11/20 10:52:22;;;;;;;;;;;6.20;99.90;;;;;;4989118;28;19930;-73
2022/11/20 10:55:06;;;;;;;;;;;5.90;99.90;;;;;;4990010;28;19973;-71
2022/11/20 10:57:52;;;;;;;;;;;5.70;99.90;;;;;;4992526;28;20419;-71
2022/11/20 11:00:17;;;;;;;;;;;5.50;99.90;;;;;;4983972;28;19922;-75
2022/11/20 11:02:45;;;;;;;;;;;5.30;99.90;;;;;;4989047;28;19990;-72
2022/11/20 11:05:14;;;;;;;;;;;6.10;99.90;;;;;;4989677;28;19968;-73
2022/11/20 11:07:40;;;;;;;;;;;4.70;99.90;;;;;;4987209;28;20026;-71
2022/11/20 11:10:18;;;;;;;;;;;4.70;99.90;;;;;;4989122;28;19927;-72
2022/11/20 11:12:46;;;;;;;;;;;4.60;99.90;;;;;;4987001;28;19964;-69
2022/11/20 11:15:32;;;;;;;;;;;4.50;99.90;;;;;;4988790;28;20368;-71
2022/11/20 11:17:58;;;;;;;;;;;4.40;99.90;;;;;;4974038;28;19922;-74
2022/11/20 11:20:24;;;;;;;;;;;4.20;99.90;;;;;;4988613;28;19926;-71
2022/11/20 11:22:52;;;;;;;;;;;4.30;99.90;;;;;;4989221;28;19948;-72
2022/11/20 11:25:28;;;;;;;;;;;4.30;99.90;;;;;;4989335;28;20020;-72
2022/11/20 11:27:56;;;;;;;;;;;4.40;99.90;;;;;;4988452;28;20014;-71
2022/11/20 11:30:22;;;;;;;;;;;4.50;99.90;;;;;;4991666;28;19917;-73
2022/11/20 11:32:47;;;;;;;;;;;4.70;99.90;;;;;;4989286;28;20022;-76
2022/11/20 11:35:24;;;;;;;;;;;4.90;99.90;;;;;;4990546;28;20300;-74
2022/11/20 11:37:50;;;;;;;;;;;5.20;99.90;;;;;;4987817;28;19928;-72
2022/11/20 11:40:20;;;;;;;;;;;5.80;99.90;;;;;;4989215;28;20391;-71
2022/11/20 11:42:50;;;;;;;;;;;6.70;99.90;;;;;;4990131;28;19922;-72
2022/11/20 11:45:17;;;;;;;;;;;7.50;99.90;;;;;;4992870;28;20418;-72
2022/11/20 11:47:42;;;;;;;;;;;7.70;99.90;;;;;;4995106;28;19921;-72
2022/11/20 11:50:08;;;;;;;;;;;7.50;99.90;;;;;;4997954;28;19932;-74
2022/11/20 11:52:45;;;;;;;;;;;7.20;99.90;;;;;;4989422;28;20014;-71
2022/11/20 11:55:14;;;;;;;;;;;6.50;99.90;;;;;;5017337;28;19954;-74
2022/11/20 11:57:47;;;;;;;;;;;5.90;99.90;;;;;;5027900;28;19957;-73
2022/11/20 12:00:14;;;;;;;;;;;5.50;99.90;;;;;;5019603;28;19926;-72
2022/11/20 12:02:42;;;;;;;;;;;5.40;99.90;;;;;;5014110;28;20266;-72
2022/11/20 12:05:24;;;;;;;;;;;5.30;99.90;;;;;;5034546;28;19927;-69
2022/11/20 12:08:02;;;;;;;;;;;5.10;99.90;;;;;;5005320;28;19921;-69
2022/11/20 12:10:46;;;;;;;;;;;4.80;99.90;;;;;;4989826;28;20300;-68
2022/11/20 12:13:38;;;;;;;;;;;4.60;99.90;;;;;;4993110;28;20369;-71
2022/11/20 12:16:05;;;;;;;;;;;4.50;99.90;;;;;;4976795;28;19922;-70
2022/11/20 12:18:34;;;;;;;;;;;4.30;99.90;;;;;;4991210;28;19948;-73
2022/11/20 12:21:11;;;;;;;;;;;6.20;99.90;;;;;;4992190;28;19922;-70
2022/11/20 12:23:43;;;;;;;;;;;4.00;99.90;;;;;;4989595;28;20383;-73
2022/11/20 12:26:42;;;;;;;;;;;4.10;99.90;;;;;;4992749;28;19918;-73
2022/11/20 12:29:26;;;;;;;;;;;4.10;99.90;;;;;;4943111;28;19925;-73
2022/11/20 12:32:15;;;;;;;;;;;4.00;99.90;;;;;;4997424;28;19943;-74
2022/11/20 12:34:43;;;;;;;;;;;3.90;99.90;;;;;;4994264;28;19929;-73
2022/11/20 12:37:20;;;;;;;;;;;3.70;99.90;;;;;;4996751;28;19922;-73
2022/11/20 12:39:50;;;;;;;;;;;3.70;99.90;;;;;;4996565;28;19973;-73
2022/11/20 12:45:28;;;;;;;;;;;3.80;99.90;;;;;;4991914;28;19922;-73
2022/11/20 12:48:12;;;;;;;;;;;3.60;99.90;;;;;;4992244;28;19929;-79
2022/11/20 12:51:06;;;;;;;;;;;3.40;99.90;;;;;;4999242;28;20000;-73
2022/11/20 12:53:44;;;;;;;;;;;3.60;99.90;;;;;;4994222;28;19922;-75
2022/11/20 12:56:35;;;;;;;;;;;3.60;99.90;;;;;;4997343;28;20463;-73
2022/11/20 12:59:16;;;;;;;;;;;3.50;99.90;;;;;;4990699;28;19930;-85
2022/11/20 13:01:49;;;;;;;;;;;3.50;99.90;;;;;;4986243;28;19941;-73
2022/11/20 13:04:34;;;;;;;;;;;3.50;99.90;;;;;;4988293;28;19929;-70
2022/11/20 13:07:02;;;;;;;;;;;3.60;99.90;;;;;;4996337;28;19990;-71
2022/11/20 13:09:28;;;;;;;;;;;3.60;99.90;;;;;;4987082;28;19925;-73
2022/11/20 13:12:14;;;;;;;;;;;3.60;99.90;;;;;;4993242;28;20449;-76
2022/11/20 13:14:39;;;;;;;;;;;3.60;99.90;;;;;;4992878;28;19922;-72
2022/11/20 13:17:14;;;;;;;;;;;3.50;99.90;;;;;;4991203;28;19930;-74
2022/11/20 13:19:46;;;;;;;;;;;3.40;99.90;;;;;;4994337;28;19925;-73
2022/11/20 13:22:11;;;;;;;;;;;3.40;99.90;;;;;;4986619;28;19929;-71
2022/11/20 13:24:37;;;;;;;;;;;3.50;99.90;;;;;;4993768;28;19926;-74
2022/11/20 13:27:23;;;;;;;;;;;3.40;99.90;;;;;;4983588;28;19967;-72
2022/11/20 13:30:16;;;;;;;;;;;3.50;99.90;;;;;;4991111;28;20258;-73
2022/11/20 13:32:51;;;;;;;;;;;3.40;99.90;;;;;;5002559;28;19922;-77
2022/11/20 13:35:36;;;;;;;;;;;3.30;99.90;;;;;;4999601;28;19922;-73
2022/11/20 13:38:09;;;;;;;;;;;3.30;99.90;;;;;;4993790;28;20020;-72
2022/11/20 13:40:53;;;;;;;;;;;3.20;99.90;;;;;;4992911;28;19922;-70
2022/11/20 13:43:35;;;;;;;;;;;3.20;99.90;;;;;;5000749;28;20369;-71
2022/11/20 13:46:07;;;;;;;;;;;3.20;99.90;;;;;;4991441;28;19971;-72
2022/11/20 13:48:54;;;;;;;;;;;3.20;99.90;;;;;;4988993;28;19929;-72
2022/11/20 13:51:34;;;;;;;;;;;3.20;99.90;;;;;;4990108;28;20287;-70
2022/11/20 13:54:20;;;;;;;;;;;3.10;99.90;;;;;;4992583;28;19928;-71
2022/11/20 13:57:06;;;;;;;;;;;3.10;99.90;;;;;;5022598;27;19988;-71
2022/11/20 13:59:32;;;;;;;;;;;3.00;99.90;;;;;;5003878;28;19921;-75
2022/11/20 14:01:58;;;;;;;;;;;3.00;99.90;;;;;;4988887;28;20486;-70
2022/11/20 14:04:26;;;;;;;;;;;3.00;99.90;;;;;;4990196;28;20403;-70
2022/11/20 14:06:52;;;;;;;;;;;3.00;99.90;;;;;;4991662;28;20695;-73
2022/11/20 14:09:26;;;;;;;;;;;3.20;99.90;;;;;;4985452;28;19930;-71
2022/11/20 14:11:51;;;;;;;;;;;3.00;99.90;;;;;;4993370;28;19926;-72
2022/11/20 14:14:18;;;;;;;;;;;2.90;99.90;;;;;;4994254;28;19922;-71
2022/11/20 14:16:44;;;;;;;;;;;2.90;99.90;;;;;;4988718;28;19969;-71
2022/11/20 14:19:19;;;;;;;;;;;2.90;99.90;;;;;;4988502;28;19969;-71
2022/11/20 14:21:45;;;;;;;;;;;2.80;99.90;;;;;;4986121;28;19969;-68
2022/11/20 14:24:11;;;;;;;;;;;2.80;99.90;;;;;;5010727;28;19926;-71
2022/11/20 14:26:44;;;;;;;;;;;2.70;99.90;;;;;;5001415;28;19924;-69
2022/11/20 14:29:17;;;;;;;;;;;2.70;99.90;;;;;;5009509;28;19937;-71
2022/11/20 14:31:44;;;;;;;;;;;2.80;99.90;;;;;;4998889;28;19922;-70
2022/11/20 14:34:15;;;;;;;;;;;2.70;99.90;;;;;;4999118;28;19929;-71
2022/11/20 14:36:42;;;;;;;;;;;2.60;99.90;;;;;;4989397;28;19983;-72
2022/11/20 14:39:10;;;;;;;;;;;2.70;99.90;;;;;;4990027;28;19922;-70
2022/11/20 14:41:36;;;;;;;;;;;2.70;99.90;;;;;;4990920;28;19925;-70
2022/11/20 14:44:02;;;;;;;;;;;3.00;99.90;;;;;;4990420;28;19922;-73
2022/11/20 14:46:30;;;;;;;;;;;2.70;99.90;;;;;;4994664;28;20004;-71
2022/11/20 14:49:00;;;;;;;;;;;2.60;99.90;;;;;;4993664;28;19925;-69
2022/11/20 14:51:33;;;;;;;;;;;2.60;99.90;;;;;;4985097;28;19922;-69
2022/11/20 14:54:09;;;;;;;;;;;2.50;99.90;;;;;;4988523;28;19929;-70